Portada
METAR-TAF:

METAR-TAF

Aeroports :

Novosibirsk, Rússia

latitud: 55-01N, longitud: 082-38E, altitud: 111 m

Observació

L'informe es va fer fa 28 minuts, a les 09:30 UTC
Vent 8 kt del Nord/Nord-Oest, variant entre Oest/Nord-Oest i Nord/Nord-Est
Temperatura 24°C
Humitat 50%
Pressió 1014 hPa
Visibilitat 10 km o més
Núvols disperses a una alçada de 4900 ft

METAR: UNNT 250930Z 33004MPS 290V030 9999 SCT049 24/13 Q1014 R25/090070 R34/090070 NOSIG RMK QFE750/1000

Hora: 16:58 (09:58 UTC)

Pronòstic

L'informe es va fer fa 1 hora i 58 minuts, a les 08:00 UTC
Pronòstic vàlid del 25 a les 09 UTC al 26 a les 09 UTC
Vent 6 kt del Sud amb ràfegues de 16 kt
Visibilitat 10 km o més
Núvols disperses a una alçada de 4000 ft, Cumulonimbus.
Temporalment
l' 25 a les 09 UTC al 25 a les 12 UTC
Vent 10 kt del Oest/Nord-Oest amb ràfegues de 19 kt
Evolucionant progressivament
l' 25 a les 12 UTC al 25 a les 13 UTC

TAF: UNNT 250800Z 2509/2609 18003G08MPS 9999 SCT040CB TEMPO 2509/2512 29005G10MPS BECMG 2512/2513 NSC

Observacions i pronòstics meteorològics de més de 4000 aeroports (METAR i TAF).

Les estacions disponibles són els punts grocs i vermells al mapa.

Posi el ratolí al punt desitjat per veure el nom de l'estació.

Feu clic per veure les observacions i els pronòstics meteorològics.

Per canviar el mapa: feu clic els botons verds amb una creu de color negre per apropar; al botó verd amb un guió per allunyar la imatge; o en les fletxes verdes per a mapes adjacents.


METAR-TAF: